sensor_id;sensor_type;location;lat;lon;timestamp;P1;durP1;ratioP1;P2;durP2;ratioP2
7377;SDS011;3730;50.856;12.776;2023-03-31T00:01:04;4.10;;;1.50;;
7377;SDS011;3730;50.856;12.776;2023-03-31T00:03:30;6.63;;;2.00;;
7377;SDS011;3730;50.856;12.776;2023-03-31T00:05:57;6.67;;;1.93;;
7377;SDS011;3730;50.856;12.776;2023-03-31T00:08:25;7.00;;;1.87;;
7377;SDS011;3730;50.856;12.776;2023-03-31T00:10:56;5.83;;;1.80;;
7377;SDS011;3730;50.856;12.776;2023-03-31T00:13:23;4.73;;;1.70;;
7377;SDS011;3730;50.856;12.776;2023-03-31T00:15:48;7.63;;;2.23;;
7377;SDS011;3730;50.856;12.776;2023-03-31T00:18:14;7.97;;;2.33;;
7377;SDS011;3730;50.856;12.776;2023-03-31T00:20:40;4.50;;;1.60;;
7377;SDS011;3730;50.856;12.776;2023-03-31T00:23:06;8.23;;;2.13;;
7377;SDS011;3730;50.856;12.776;2023-03-31T00:25:34;6.93;;;1.80;;
7377;SDS011;3730;50.856;12.776;2023-03-31T00:28:00;8.87;;;1.80;;
7377;SDS011;3730;50.856;12.776;2023-03-31T00:30:26;4.23;;;1.83;;
7377;SDS011;3730;50.856;12.776;2023-03-31T00:32:52;6.13;;;1.97;;
7377;SDS011;3730;50.856;12.776;2023-03-31T00:35:18;4.43;;;1.77;;
7377;SDS011;3730;50.856;12.776;2023-03-31T00:37:44;5.00;;;1.87;;
7377;SDS011;3730;50.856;12.776;2023-03-31T00:40:11;5.83;;;2.10;;
7377;SDS011;3730;50.856;12.776;2023-03-31T00:42:40;8.13;;;1.73;;
7377;SDS011;3730;50.856;12.776;2023-03-31T00:47:52;7.10;;;1.70;;
7377;SDS011;3730;50.856;12.776;2023-03-31T00:50:20;3.00;;;1.33;;
7377;SDS011;3730;50.856;12.776;2023-03-31T00:52:47;3.47;;;1.50;;
7377;SDS011;3730;50.856;12.776;2023-03-31T00:55:17;5.13;;;1.77;;
7377;SDS011;3730;50.856;12.776;2023-03-31T00:57:44;5.43;;;2.00;;
7377;SDS011;3730;50.856;12.776;2023-03-31T01:00:12;6.40;;;1.80;;
7377;SDS011;3730;50.856;12.776;2023-03-31T01:02:43;7.10;;;1.90;;
7377;SDS011;3730;50.856;12.776;2023-03-31T01:05:16;4.87;;;1.63;;
7377;SDS011;3730;50.856;12.776;2023-03-31T01:07:44;5.30;;;1.50;;
7377;SDS011;3730;50.856;12.776;2023-03-31T01:10:12;6.13;;;1.87;;
7377;SDS011;3730;50.856;12.776;2023-03-31T01:12:43;6.47;;;1.93;;
7377;SDS011;3730;50.856;12.776;2023-03-31T01:15:10;3.53;;;1.60;;
7377;SDS011;3730;50.856;12.776;2023-03-31T01:17:36;6.47;;;1.80;;
7377;SDS011;3730;50.856;12.776;2023-03-31T01:20:05;6.03;;;1.93;;
7377;SDS011;3730;50.856;12.776;2023-03-31T01:38:11;5.40;;;1.67;;
7377;SDS011;3730;50.856;12.776;2023-03-31T01:40:53;5.67;;;2.00;;
7377;SDS011;3730;50.856;12.776;2023-03-31T01:43:29;5.80;;;1.60;;
7377;SDS011;3730;50.856;12.776;2023-03-31T01:49:17;6.33;;;1.90;;
7377;SDS011;3730;50.856;12.776;2023-03-31T01:54:22;6.63;;;2.20;;
7377;SDS011;3730;50.856;12.776;2023-03-31T01:57:08;6.40;;;1.50;;
7377;SDS011;3730;50.856;12.776;2023-03-31T01:59:38;6.63;;;1.70;;
7377;SDS011;3730;50.856;12.776;2023-03-31T02:02:07;6.53;;;1.70;;
7377;SDS011;3730;50.856;12.776;2023-03-31T02:04:37;6.47;;;1.83;;
7377;SDS011;3730;50.856;12.776;2023-03-31T02:07:19;3.63;;;1.67;;
7377;SDS011;3730;50.856;12.776;2023-03-31T02:09:48;9.00;;;2.00;;
7377;SDS011;3730;50.856;12.776;2023-03-31T02:12:15;8.10;;;1.63;;
7377;SDS011;3730;50.856;12.776;2023-03-31T02:14:42;3.10;;;1.57;;
7377;SDS011;3730;50.856;12.776;2023-03-31T02:17:10;6.70;;;1.70;;
7377;SDS011;3730;50.856;12.776;2023-03-31T02:19:42;5.17;;;1.40;;
7377;SDS011;3730;50.856;12.776;2023-03-31T02:22:08;6.10;;;1.73;;
7377;SDS011;3730;50.856;12.776;2023-03-31T02:24:35;7.67;;;2.10;;
7377;SDS011;3730;50.856;12.776;2023-03-31T02:27:08;4.00;;;1.60;;
7377;SDS011;3730;50.856;12.776;2023-03-31T02:29:35;5.10;;;1.73;;
7377;SDS011;3730;50.856;12.776;2023-03-31T02:32:15;6.27;;;1.67;;
7377;SDS011;3730;50.856;12.776;2023-03-31T02:34:44;8.03;;;2.20;;
7377;SDS011;3730;50.856;12.776;2023-03-31T02:37:11;6.70;;;1.70;;
7377;SDS011;3730;50.856;12.776;2023-03-31T02:39:37;4.67;;;1.50;;
7377;SDS011;3730;50.856;12.776;2023-03-31T02:42:04;5.97;;;1.77;;
7377;SDS011;3730;50.856;12.776;2023-03-31T02:44:37;11.00;;;1.70;;
7377;SDS011;3730;50.856;12.776;2023-03-31T02:47:08;3.30;;;1.40;;
7377;SDS011;3730;50.856;12.776;2023-03-31T02:49:36;6.27;;;1.90;;
7377;SDS011;3730;50.856;12.776;2023-03-31T03:07:15;4.70;;;1.60;;
7377;SDS011;3730;50.856;12.776;2023-03-31T03:09:51;5.10;;;1.77;;
7377;SDS011;3730;50.856;12.776;2023-03-31T03:12:21;5.17;;;1.97;;
7377;SDS011;3730;50.856;12.776;2023-03-31T03:19:55;4.07;;;1.50;;
7377;SDS011;3730;50.856;12.776;2023-03-31T03:22:21;7.03;;;1.80;;
7377;SDS011;3730;50.856;12.776;2023-03-31T03:24:47;6.27;;;1.80;;
7377;SDS011;3730;50.856;12.776;2023-03-31T03:27:13;6.27;;;1.80;;
7377;SDS011;3730;50.856;12.776;2023-03-31T03:29:40;8.30;;;1.67;;
7377;SDS011;3730;50.856;12.776;2023-03-31T03:32:07;8.70;;;1.80;;
7377;SDS011;3730;50.856;12.776;2023-03-31T03:34:33;6.07;;;1.53;;
7377;SDS011;3730;50.856;12.776;2023-03-31T03:36:59;6.30;;;2.00;;
7377;SDS011;3730;50.856;12.776;2023-03-31T03:39:25;6.00;;;1.57;;
7377;SDS011;3730;50.856;12.776;2023-03-31T03:41:51;6.93;;;1.60;;
7377;SDS011;3730;50.856;12.776;2023-03-31T03:44:17;3.33;;;1.60;;
7377;SDS011;3730;50.856;12.776;2023-03-31T03:46:43;7.87;;;1.70;;
7377;SDS011;3730;50.856;12.776;2023-03-31T03:49:09;5.87;;;2.10;;
7377;SDS011;3730;50.856;12.776;2023-03-31T03:51:35;3.40;;;1.10;;
7377;SDS011;3730;50.856;12.776;2023-03-31T03:54:01;5.97;;;1.50;;
7377;SDS011;3730;50.856;12.776;2023-03-31T03:56:27;6.23;;;1.40;;
7377;SDS011;3730;50.856;12.776;2023-03-31T03:58:53;3.70;;;1.53;;
7377;SDS011;3730;50.856;12.776;2023-03-31T04:01:19;5.10;;;1.60;;
7377;SDS011;3730;50.856;12.776;2023-03-31T04:03:46;5.57;;;1.57;;
7377;SDS011;3730;50.856;12.776;2023-03-31T04:06:12;6.30;;;1.33;;
7377;SDS011;3730;50.856;12.776;2023-03-31T04:08:38;4.17;;;1.40;;
7377;SDS011;3730;50.856;12.776;2023-03-31T04:11:09;3.80;;;1.40;;
7377;SDS011;3730;50.856;12.776;2023-03-31T04:13:37;4.50;;;1.60;;
7377;SDS011;3730;50.856;12.776;2023-03-31T04:16:03;3.33;;;1.60;;
7377;SDS011;3730;50.856;12.776;2023-03-31T04:18:29;5.23;;;1.80;;
7377;SDS011;3730;50.856;12.776;2023-03-31T04:20:55;7.63;;;1.80;;
7377;SDS011;3730;50.856;12.776;2023-03-31T04:23:31;7.67;;;2.00;;
7377;SDS011;3730;50.856;12.776;2023-03-31T04:25:57;3.47;;;1.40;;
7377;SDS011;3730;50.856;12.776;2023-03-31T04:28:23;4.17;;;1.50;;
7377;SDS011;3730;50.856;12.776;2023-03-31T04:30:51;5.27;;;1.77;;
7377;SDS011;3730;50.856;12.776;2023-03-31T04:33:18;5.87;;;1.53;;
7377;SDS011;3730;50.856;12.776;2023-03-31T04:35:45;3.60;;;1.40;;
7377;SDS011;3730;50.856;12.776;2023-03-31T04:38:21;4.47;;;1.40;;
7377;SDS011;3730;50.856;12.776;2023-03-31T04:40:48;3.37;;;1.40;;
7377;SDS011;3730;50.856;12.776;2023-03-31T04:43:15;4.73;;;1.63;;
7377;SDS011;3730;50.856;12.776;2023-03-31T04:45:41;5.47;;;1.53;;
7377;SDS011;3730;50.856;12.776;2023-03-31T04:48:07;2.53;;;1.30;;
7377;SDS011;3730;50.856;12.776;2023-03-31T04:50:33;5.63;;;2.20;;
7377;SDS011;3730;50.856;12.776;2023-03-31T04:53:00;4.70;;;1.57;;
7377;SDS011;3730;50.856;12.776;2023-03-31T04:55:26;4.60;;;1.50;;
7377;SDS011;3730;50.856;12.776;2023-03-31T04:57:52;5.50;;;1.50;;
7377;SDS011;3730;50.856;12.776;2023-03-31T05:00:18;3.03;;;1.23;;
7377;SDS011;3730;50.856;12.776;2023-03-31T05:02:44;4.50;;;1.50;;
7377;SDS011;3730;50.856;12.776;2023-03-31T05:05:11;4.63;;;1.43;;
7377;SDS011;3730;50.856;12.776;2023-03-31T05:07:37;5.57;;;1.80;;
7377;SDS011;3730;50.856;12.776;2023-03-31T05:10:03;5.40;;;1.60;;
7377;SDS011;3730;50.856;12.776;2023-03-31T05:12:33;3.70;;;1.50;;
7377;SDS011;3730;50.856;12.776;2023-03-31T05:15:00;7.37;;;1.77;;
7377;SDS011;3730;50.856;12.776;2023-03-31T05:17:26;4.83;;;1.70;;
7377;SDS011;3730;50.856;12.776;2023-03-31T05:19:52;3.13;;;1.90;;
7377;SDS011;3730;50.856;12.776;2023-03-31T05:22:18;6.57;;;1.57;;
7377;SDS011;3730;50.856;12.776;2023-03-31T05:24:45;9.10;;;2.13;;
7377;SDS011;3730;50.856;12.776;2023-03-31T05:27:11;6.83;;;2.10;;
7377;SDS011;3730;50.856;12.776;2023-03-31T05:29:37;5.60;;;2.07;;
7377;SDS011;3730;50.856;12.776;2023-03-31T05:32:03;6.77;;;1.77;;
7377;SDS011;3730;50.856;12.776;2023-03-31T05:34:29;6.13;;;2.13;;
7377;SDS011;3730;50.856;12.776;2023-03-31T05:36:55;6.83;;;2.30;;
7377;SDS011;3730;50.856;12.776;2023-03-31T05:39:22;4.23;;;1.90;;
7377;SDS011;3730;50.856;12.776;2023-03-31T05:41:48;5.37;;;1.90;;
7377;SDS011;3730;50.856;12.776;2023-03-31T05:44:14;6.87;;;1.93;;
7377;SDS011;3730;50.856;12.776;2023-03-31T05:46:41;5.13;;;2.10;;
7377;SDS011;3730;50.856;12.776;2023-03-31T05:49:07;5.07;;;2.53;;
7377;SDS011;3730;50.856;12.776;2023-03-31T05:51:33;7.73;;;2.17;;
7377;SDS011;3730;50.856;12.776;2023-03-31T05:54:00;3.47;;;2.20;;
7377;SDS011;3730;50.856;12.776;2023-03-31T05:56:26;7.57;;;2.27;;
7377;SDS011;3730;50.856;12.776;2023-03-31T05:58:52;7.37;;;4.07;;
7377;SDS011;3730;50.856;12.776;2023-03-31T06:01:18;6.80;;;2.57;;
7377;SDS011;3730;50.856;12.776;2023-03-31T06:03:47;9.63;;;2.20;;
7377;SDS011;3730;50.856;12.776;2023-03-31T06:06:13;6.17;;;1.87;;
7377;SDS011;3730;50.856;12.776;2023-03-31T06:08:40;5.00;;;1.97;;
7377;SDS011;3730;50.856;12.776;2023-03-31T06:11:07;3.07;;;1.80;;
7377;SDS011;3730;50.856;12.776;2023-03-31T06:13:34;8.73;;;3.03;;
7377;SDS011;3730;50.856;12.776;2023-03-31T06:16:00;4.53;;;1.80;;
7377;SDS011;3730;50.856;12.776;2023-03-31T06:18:27;5.87;;;2.03;;
7377;SDS011;3730;50.856;12.776;2023-03-31T06:20:53;5.87;;;2.83;;
7377;SDS011;3730;50.856;12.776;2023-03-31T06:23:19;5.53;;;2.13;;
7377;SDS011;3730;50.856;12.776;2023-03-31T06:25:45;5.67;;;1.93;;
7377;SDS011;3730;50.856;12.776;2023-03-31T06:28:11;4.37;;;1.97;;
7377;SDS011;3730;50.856;12.776;2023-03-31T06:30:37;5.40;;;2.00;;
7377;SDS011;3730;50.856;12.776;2023-03-31T06:33:03;6.67;;;2.00;;
7377;SDS011;3730;50.856;12.776;2023-03-31T06:35:29;4.87;;;1.97;;
7377;SDS011;3730;50.856;12.776;2023-03-31T06:37:55;7.50;;;1.90;;
7377;SDS011;3730;50.856;12.776;2023-03-31T06:40:21;7.13;;;2.23;;
7377;SDS011;3730;50.856;12.776;2023-03-31T06:42:47;4.97;;;2.27;;
7377;SDS011;3730;50.856;12.776;2023-03-31T06:45:13;10.77;;;2.13;;
7377;SDS011;3730;50.856;12.776;2023-03-31T06:47:40;7.00;;;2.40;;
7377;SDS011;3730;50.856;12.776;2023-03-31T06:50:07;5.87;;;2.20;;
7377;SDS011;3730;50.856;12.776;2023-03-31T06:52:33;6.80;;;2.13;;
7377;SDS011;3730;50.856;12.776;2023-03-31T06:55:00;5.67;;;2.10;;
7377;SDS011;3730;50.856;12.776;2023-03-31T06:57:26;8.80;;;2.60;;
7377;SDS011;3730;50.856;12.776;2023-03-31T06:59:52;5.23;;;2.30;;
7377;SDS011;3730;50.856;12.776;2023-03-31T07:02:18;8.07;;;2.57;;
7377;SDS011;3730;50.856;12.776;2023-03-31T07:04:45;7.33;;;2.30;;
7377;SDS011;3730;50.856;12.776;2023-03-31T07:07:11;8.70;;;1.80;;
7377;SDS011;3730;50.856;12.776;2023-03-31T07:09:37;5.77;;;1.73;;
7377;SDS011;3730;50.856;12.776;2023-03-31T07:12:04;6.17;;;2.00;;
7377;SDS011;3730;50.856;12.776;2023-03-31T07:14:30;6.57;;;2.20;;
7377;SDS011;3730;50.856;12.776;2023-03-31T07:16:57;7.23;;;2.30;;
7377;SDS011;3730;50.856;12.776;2023-03-31T07:19:23;7.30;;;1.90;;
7377;SDS011;3730;50.856;12.776;2023-03-31T07:21:49;5.20;;;2.20;;
7377;SDS011;3730;50.856;12.776;2023-03-31T07:24:16;3.83;;;1.93;;
7377;SDS011;3730;50.856;12.776;2023-03-31T07:26:42;6.80;;;2.33;;
7377;SDS011;3730;50.856;12.776;2023-03-31T07:29:08;11.63;;;2.70;;
7377;SDS011;3730;50.856;12.776;2023-03-31T07:31:34;8.40;;;2.10;;
7377;SDS011;3730;50.856;12.776;2023-03-31T07:34:00;8.93;;;2.00;;
7377;SDS011;3730;50.856;12.776;2023-03-31T07:36:27;5.37;;;2.00;;
7377;SDS011;3730;50.856;12.776;2023-03-31T07:38:53;5.07;;;2.07;;
7377;SDS011;3730;50.856;12.776;2023-03-31T07:41:19;7.73;;;1.93;;
7377;SDS011;3730;50.856;12.776;2023-03-31T07:43:46;7.80;;;2.50;;
7377;SDS011;3730;50.856;12.776;2023-03-31T07:46:13;5.63;;;2.00;;
7377;SDS011;3730;50.856;12.776;2023-03-31T07:48:39;6.80;;;1.60;;
7377;SDS011;3730;50.856;12.776;2023-03-31T07:51:05;7.17;;;1.83;;
7377;SDS011;3730;50.856;12.776;2023-03-31T07:53:31;7.80;;;1.70;;
7377;SDS011;3730;50.856;12.776;2023-03-31T07:55:57;4.13;;;1.50;;
7377;SDS011;3730;50.856;12.776;2023-03-31T07:58:23;3.60;;;1.67;;
7377;SDS011;3730;50.856;12.776;2023-03-31T08:00:49;4.10;;;1.60;;
7377;SDS011;3730;50.856;12.776;2023-03-31T08:03:15;4.00;;;1.50;;
7377;SDS011;3730;50.856;12.776;2023-03-31T08:05:41;5.07;;;2.10;;
7377;SDS011;3730;50.856;12.776;2023-03-31T08:08:07;6.40;;;2.17;;
7377;SDS011;3730;50.856;12.776;2023-03-31T08:10:33;4.53;;;1.97;;
7377;SDS011;3730;50.856;12.776;2023-03-31T08:12:59;3.23;;;1.73;;
7377;SDS011;3730;50.856;12.776;2023-03-31T08:15:25;6.70;;;1.73;;
7377;SDS011;3730;50.856;12.776;2023-03-31T08:17:52;5.87;;;2.20;;
7377;SDS011;3730;50.856;12.776;2023-03-31T08:20:18;5.43;;;1.90;;
7377;SDS011;3730;50.856;12.776;2023-03-31T08:22:47;4.90;;;2.10;;
7377;SDS011;3730;50.856;12.776;2023-03-31T08:25:13;6.33;;;1.97;;
7377;SDS011;3730;50.856;12.776;2023-03-31T08:27:39;4.63;;;1.80;;
7377;SDS011;3730;50.856;12.776;2023-03-31T08:30:06;3.27;;;1.47;;
7377;SDS011;3730;50.856;12.776;2023-03-31T08:32:33;4.00;;;1.63;;
7377;SDS011;3730;50.856;12.776;2023-03-31T08:34:59;4.37;;;1.60;;
7377;SDS011;3730;50.856;12.776;2023-03-31T08:37:25;9.80;;;2.13;;
7377;SDS011;3730;50.856;12.776;2023-03-31T08:39:52;4.97;;;1.87;;
7377;SDS011;3730;50.856;12.776;2023-03-31T08:42:20;5.83;;;1.90;;
7377;SDS011;3730;50.856;12.776;2023-03-31T08:47:34;6.67;;;1.70;;
7377;SDS011;3730;50.856;12.776;2023-03-31T08:50:04;5.60;;;2.17;;
7377;SDS011;3730;50.856;12.776;2023-03-31T08:52:36;4.23;;;1.93;;
7377;SDS011;3730;50.856;12.776;2023-03-31T08:55:04;5.97;;;1.97;;
7377;SDS011;3730;50.856;12.776;2023-03-31T09:00:16;4.03;;;1.57;;
7377;SDS011;3730;50.856;12.776;2023-03-31T09:08:31;6.30;;;2.17;;
7377;SDS011;3730;50.856;12.776;2023-03-31T09:10:57;3.03;;;1.70;;
7377;SDS011;3730;50.856;12.776;2023-03-31T09:16:13;3.77;;;1.87;;
7377;SDS011;3730;50.856;12.776;2023-03-31T09:18:39;3.20;;;1.80;;
7377;SDS011;3730;50.856;12.776;2023-03-31T09:23:42;3.47;;;1.40;;
7377;SDS011;3730;50.856;12.776;2023-03-31T09:26:19;3.10;;;1.40;;
7377;SDS011;3730;50.856;12.776;2023-03-31T09:28:47;2.90;;;1.70;;
7377;SDS011;3730;50.856;12.776;2023-03-31T09:31:14;2.43;;;1.50;;
7377;SDS011;3730;50.856;12.776;2023-03-31T09:33:45;5.37;;;1.70;;
7377;SDS011;3730;50.856;12.776;2023-03-31T09:36:21;2.53;;;1.50;;
7377;SDS011;3730;50.856;12.776;2023-03-31T09:38:47;4.53;;;1.43;;
7377;SDS011;3730;50.856;12.776;2023-03-31T09:41:14;3.93;;;1.70;;
7377;SDS011;3730;50.856;12.776;2023-03-31T09:43:40;3.67;;;1.53;;
7377;SDS011;3730;50.856;12.776;2023-03-31T09:46:50;2.63;;;1.37;;
7377;SDS011;3730;50.856;12.776;2023-03-31T09:48:59;4.20;;;1.60;;
7377;SDS011;3730;50.856;12.776;2023-03-31T09:51:27;3.37;;;1.80;;
7377;SDS011;3730;50.856;12.776;2023-03-31T09:59:11;2.87;;;1.80;;
7377;SDS011;3730;50.856;12.776;2023-03-31T10:01:38;3.30;;;1.50;;
7377;SDS011;3730;50.856;12.776;2023-03-31T10:04:06;3.67;;;1.70;;
7377;SDS011;3730;50.856;12.776;2023-03-31T10:06:33;3.40;;;1.60;;
7377;SDS011;3730;50.856;12.776;2023-03-31T10:09:05;5.60;;;2.53;;
7377;SDS011;3730;50.856;12.776;2023-03-31T10:11:31;4.27;;;1.63;;
7377;SDS011;3730;50.856;12.776;2023-03-31T10:18:52;4.53;;;1.90;;
7377;SDS011;3730;50.856;12.776;2023-03-31T10:21:23;4.13;;;1.80;;
7377;SDS011;3730;50.856;12.776;2023-03-31T10:23:50;2.20;;;1.50;;
7377;SDS011;3730;50.856;12.776;2023-03-31T10:26:25;3.90;;;1.90;;
7377;SDS011;3730;50.856;12.776;2023-03-31T10:28:52;2.17;;;1.70;;
7377;SDS011;3730;50.856;12.776;2023-03-31T10:31:19;4.00;;;2.07;;
7377;SDS011;3730;50.856;12.776;2023-03-31T10:33:49;4.10;;;2.50;;
7377;SDS011;3730;50.856;12.776;2023-03-31T10:36:20;5.27;;;3.47;;
7377;SDS011;3730;50.856;12.776;2023-03-31T10:38:47;7.33;;;4.53;;
7377;SDS011;3730;50.856;12.776;2023-03-31T10:41:28;3.10;;;2.33;;
7377;SDS011;3730;50.856;12.776;2023-03-31T10:43:55;6.27;;;2.00;;
7377;SDS011;3730;50.856;12.776;2023-03-31T10:49:40;3.10;;;2.30;;
7377;SDS011;3730;50.856;12.776;2023-03-31T10:51:59;2.43;;;2.00;;
7377;SDS011;3730;50.856;12.776;2023-03-31T10:54:25;2.87;;;2.17;;
7377;SDS011;3730;50.856;12.776;2023-03-31T10:56:51;2.63;;;2.27;;
7377;SDS011;3730;50.856;12.776;2023-03-31T10:59:38;2.23;;;1.63;;
7377;SDS011;3730;50.856;12.776;2023-03-31T11:04:53;3.13;;;1.73;;
7377;SDS011;3730;50.856;12.776;2023-03-31T11:09:58;3.03;;;1.90;;
7377;SDS011;3730;50.856;12.776;2023-03-31T11:12:33;2.53;;;1.93;;
7377;SDS011;3730;50.856;12.776;2023-03-31T11:23:20;4.47;;;3.20;;
7377;SDS011;3730;50.856;12.776;2023-03-31T11:26:07;5.27;;;2.10;;
7377;SDS011;3730;50.856;12.776;2023-03-31T11:28:56;3.60;;;1.90;;
7377;SDS011;3730;50.856;12.776;2023-03-31T11:34:17;2.40;;;2.00;;
7377;SDS011;3730;50.856;12.776;2023-03-31T11:42:15;3.00;;;2.00;;
7377;SDS011;3730;50.856;12.776;2023-03-31T11:44:47;3.60;;;2.27;;
7377;SDS011;3730;50.856;12.776;2023-03-31T11:47:24;6.20;;;2.20;;
7377;SDS011;3730;50.856;12.776;2023-03-31T11:49:54;4.00;;;2.60;;
7377;SDS011;3730;50.856;12.776;2023-03-31T11:52:26;6.17;;;4.20;;
7377;SDS011;3730;50.856;12.776;2023-03-31T11:55:01;3.07;;;1.87;;
7377;SDS011;3730;50.856;12.776;2023-03-31T11:57:44;2.13;;;1.60;;
7377;SDS011;3730;50.856;12.776;2023-03-31T12:05:10;2.30;;;1.80;;
7377;SDS011;3730;50.856;12.776;2023-03-31T12:10:10;2.43;;;1.80;;
7377;SDS011;3730;50.856;12.776;2023-03-31T12:12:45;3.83;;;2.30;;
7377;SDS011;3730;50.856;12.776;2023-03-31T12:15:22;3.50;;;1.80;;
7377;SDS011;3730;50.856;12.776;2023-03-31T12:20:35;2.30;;;1.87;;
7377;SDS011;3730;50.856;12.776;2023-03-31T12:23:05;2.47;;;2.00;;
7377;SDS011;3730;50.856;12.776;2023-03-31T12:25:39;1.70;;;1.53;;
7377;SDS011;3730;50.856;12.776;2023-03-31T12:28:07;3.57;;;2.13;;
7377;SDS011;3730;50.856;12.776;2023-03-31T12:30:38;4.70;;;1.73;;
7377;SDS011;3730;50.856;12.776;2023-03-31T12:33:19;2.07;;;1.97;;
7377;SDS011;3730;50.856;12.776;2023-03-31T12:36:07;3.23;;;1.97;;
7377;SDS011;3730;50.856;12.776;2023-03-31T12:38:49;2.33;;;2.13;;
7377;SDS011;3730;50.856;12.776;2023-03-31T12:43:58;3.33;;;1.80;;
7377;SDS011;3730;50.856;12.776;2023-03-31T12:57:01;3.33;;;1.87;;
7377;SDS011;3730;50.856;12.776;2023-03-31T13:04:35;2.30;;;1.60;;
7377;SDS011;3730;50.856;12.776;2023-03-31T13:07:02;2.67;;;1.33;;
7377;SDS011;3730;50.856;12.776;2023-03-31T13:11:57;2.10;;;1.40;;
7377;SDS011;3730;50.856;12.776;2023-03-31T13:14:35;1.53;;;1.10;;
7377;SDS011;3730;50.856;12.776;2023-03-31T13:17:12;1.83;;;0.90;;
7377;SDS011;3730;50.856;12.776;2023-03-31T13:19:39;1.60;;;1.23;;
7377;SDS011;3730;50.856;12.776;2023-03-31T13:22:06;1.40;;;1.10;;
7377;SDS011;3730;50.856;12.776;2023-03-31T13:24:52;1.40;;;1.30;;
7377;SDS011;3730;50.856;12.776;2023-03-31T13:27:33;1.23;;;1.13;;
7377;SDS011;3730;50.856;12.776;2023-03-31T13:29:59;1.83;;;1.27;;
7377;SDS011;3730;50.856;12.776;2023-03-31T13:32:26;3.73;;;1.50;;
7377;SDS011;3730;50.856;12.776;2023-03-31T13:35:00;2.33;;;1.50;;
7377;SDS011;3730;50.856;12.776;2023-03-31T13:42:47;5.13;;;1.60;;
7377;SDS011;3730;50.856;12.776;2023-03-31T13:45:25;1.97;;;1.47;;
7377;SDS011;3730;50.856;12.776;2023-03-31T13:53:21;2.37;;;1.60;;
7377;SDS011;3730;50.856;12.776;2023-03-31T14:09:09;2.57;;;1.50;;
7377;SDS011;3730;50.856;12.776;2023-03-31T14:11:37;2.87;;;1.40;;
7377;SDS011;3730;50.856;12.776;2023-03-31T14:16:31;5.07;;;1.13;;
7377;SDS011;3730;50.856;12.776;2023-03-31T14:19:40;2.23;;;0.90;;
7377;SDS011;3730;50.856;12.776;2023-03-31T14:22:11;2.13;;;1.00;;
7377;SDS011;3730;50.856;12.776;2023-03-31T14:32:29;4.10;;;1.20;;
7377;SDS011;3730;50.856;12.776;2023-03-31T14:37:33;1.67;;;1.20;;
7377;SDS011;3730;50.856;12.776;2023-03-31T14:39:59;1.90;;;1.10;;
7377;SDS011;3730;50.856;12.776;2023-03-31T14:42:35;2.90;;;1.20;;
7377;SDS011;3730;50.856;12.776;2023-03-31T14:45:03;4.00;;;1.20;;
7377;SDS011;3730;50.856;12.776;2023-03-31T14:47:30;4.93;;;1.10;;
7377;SDS011;3730;50.856;12.776;2023-03-31T14:50:15;1.80;;;1.43;;
7377;SDS011;3730;50.856;12.776;2023-03-31T14:52:45;1.97;;;1.10;;
7377;SDS011;3730;50.856;12.776;2023-03-31T14:55:15;3.40;;;1.23;;
7377;SDS011;3730;50.856;12.776;2023-03-31T14:57:41;2.87;;;1.30;;
7377;SDS011;3730;50.856;12.776;2023-03-31T15:00:10;4.60;;;1.07;;
7377;SDS011;3730;50.856;12.776;2023-03-31T15:02:39;3.33;;;1.40;;
7377;SDS011;3730;50.856;12.776;2023-03-31T15:05:07;4.73;;;1.10;;
7377;SDS011;3730;50.856;12.776;2023-03-31T15:07:34;1.43;;;0.70;;
7377;SDS011;3730;50.856;12.776;2023-03-31T15:10:00;3.60;;;1.43;;
7377;SDS011;3730;50.856;12.776;2023-03-31T15:12:27;2.00;;;1.00;;
7377;SDS011;3730;50.856;12.776;2023-03-31T15:14:54;2.70;;;1.00;;
7377;SDS011;3730;50.856;12.776;2023-03-31T15:19:55;1.73;;;0.70;;
7377;SDS011;3730;50.856;12.776;2023-03-31T15:22:22;2.60;;;1.17;;
7377;SDS011;3730;50.856;12.776;2023-03-31T15:24:48;4.53;;;1.57;;
7377;SDS011;3730;50.856;12.776;2023-03-31T15:29:41;3.10;;;1.00;;
7377;SDS011;3730;50.856;12.776;2023-03-31T15:32:16;4.13;;;1.23;;
7377;SDS011;3730;50.856;12.776;2023-03-31T15:34:45;2.93;;;1.10;;
7377;SDS011;3730;50.856;12.776;2023-03-31T15:37:11;1.87;;;0.90;;
7377;SDS011;3730;50.856;12.776;2023-03-31T15:39:38;4.73;;;1.30;;
7377;SDS011;3730;50.856;12.776;2023-03-31T15:42:04;1.77;;;0.73;;
7377;SDS011;3730;50.856;12.776;2023-03-31T15:44:36;1.73;;;1.10;;
7377;SDS011;3730;50.856;12.776;2023-03-31T15:47:06;2.53;;;1.13;;
7377;SDS011;3730;50.856;12.776;2023-03-31T15:49:33;3.10;;;0.90;;
7377;SDS011;3730;50.856;12.776;2023-03-31T15:52:00;2.03;;;1.10;;
7377;SDS011;3730;50.856;12.776;2023-03-31T15:56:58;2.23;;;1.03;;
7377;SDS011;3730;50.856;12.776;2023-03-31T15:59:25;3.17;;;1.40;;
7377;SDS011;3730;50.856;12.776;2023-03-31T16:01:52;2.67;;;1.50;;
7377;SDS011;3730;50.856;12.776;2023-03-31T16:04:20;2.30;;;1.30;;
7377;SDS011;3730;50.856;12.776;2023-03-31T16:06:53;2.20;;;1.50;;
7377;SDS011;3730;50.856;12.776;2023-03-31T16:09:25;4.03;;;1.53;;
7377;SDS011;3730;50.856;12.776;2023-03-31T16:11:54;3.70;;;1.60;;
7377;SDS011;3730;50.856;12.776;2023-03-31T16:14:55;2.93;;;1.60;;
7377;SDS011;3730;50.856;12.776;2023-03-31T16:17:26;3.53;;;1.50;;
7377;SDS011;3730;50.856;12.776;2023-03-31T16:20:03;4.03;;;1.43;;
7377;SDS011;3730;50.856;12.776;2023-03-31T16:22:40;5.67;;;1.63;;
7377;SDS011;3730;50.856;12.776;2023-03-31T16:25:09;2.13;;;1.00;;
7377;SDS011;3730;50.856;12.776;2023-03-31T16:27:39;4.80;;;1.90;;
7377;SDS011;3730;50.856;12.776;2023-03-31T16:30:08;3.47;;;1.80;;
7377;SDS011;3730;50.856;12.776;2023-03-31T16:32:35;6.33;;;2.00;;
7377;SDS011;3730;50.856;12.776;2023-03-31T16:35:02;6.63;;;2.80;;
7377;SDS011;3730;50.856;12.776;2023-03-31T16:37:29;7.87;;;2.80;;
7377;SDS011;3730;50.856;12.776;2023-03-31T16:39:55;6.33;;;2.90;;
7377;SDS011;3730;50.856;12.776;2023-03-31T16:42:21;7.47;;;3.30;;
7377;SDS011;3730;50.856;12.776;2023-03-31T16:44:47;7.03;;;3.10;;
7377;SDS011;3730;50.856;12.776;2023-03-31T16:47:13;5.57;;;2.50;;
7377;SDS011;3730;50.856;12.776;2023-03-31T16:49:39;4.63;;;3.20;;
7377;SDS011;3730;50.856;12.776;2023-03-31T16:52:05;7.40;;;3.10;;
7377;SDS011;3730;50.856;12.776;2023-03-31T16:54:33;7.97;;;3.43;;
7377;SDS011;3730;50.856;12.776;2023-03-31T16:57:00;6.60;;;3.07;;
7377;SDS011;3730;50.856;12.776;2023-03-31T16:59:26;7.07;;;3.30;;
7377;SDS011;3730;50.856;12.776;2023-03-31T17:01:52;5.77;;;3.13;;
7377;SDS011;3730;50.856;12.776;2023-03-31T17:04:18;6.87;;;2.50;;
7377;SDS011;3730;50.856;12.776;2023-03-31T17:06:44;5.80;;;2.40;;
7377;SDS011;3730;50.856;12.776;2023-03-31T17:09:11;4.77;;;2.03;;
7377;SDS011;3730;50.856;12.776;2023-03-31T17:11:37;6.17;;;1.90;;
7377;SDS011;3730;50.856;12.776;2023-03-31T17:14:03;4.00;;;1.60;;
7377;SDS011;3730;50.856;12.776;2023-03-31T17:16:29;5.00;;;1.60;;
7377;SDS011;3730;50.856;12.776;2023-03-31T17:18:56;2.53;;;1.10;;
7377;SDS011;3730;50.856;12.776;2023-03-31T17:21:22;1.70;;;0.90;;
7377;SDS011;3730;50.856;12.776;2023-03-31T17:23:48;3.40;;;1.00;;
7377;SDS011;3730;50.856;12.776;2023-03-31T17:26:14;4.70;;;1.10;;
7377;SDS011;3730;50.856;12.776;2023-03-31T17:28:41;2.43;;;1.07;;
7377;SDS011;3730;50.856;12.776;2023-03-31T17:31:14;3.93;;;1.00;;
7377;SDS011;3730;50.856;12.776;2023-03-31T17:33:40;1.60;;;0.70;;
7377;SDS011;3730;50.856;12.776;2023-03-31T17:36:07;1.07;;;0.70;;
7377;SDS011;3730;50.856;12.776;2023-03-31T17:38:33;1.77;;;1.00;;
7377;SDS011;3730;50.856;12.776;2023-03-31T17:41:03;4.37;;;1.20;;
7377;SDS011;3730;50.856;12.776;2023-03-31T17:43:29;2.17;;;0.93;;
7377;SDS011;3730;50.856;12.776;2023-03-31T17:46:29;2.00;;;1.03;;
7377;SDS011;3730;50.856;12.776;2023-03-31T17:48:48;3.17;;;1.30;;
7377;SDS011;3730;50.856;12.776;2023-03-31T17:51:16;2.77;;;0.90;;
7377;SDS011;3730;50.856;12.776;2023-03-31T17:53:43;2.63;;;1.03;;
7377;SDS011;3730;50.856;12.776;2023-03-31T17:56:09;3.53;;;1.07;;
7377;SDS011;3730;50.856;12.776;2023-03-31T17:58:35;3.20;;;1.40;;
7377;SDS011;3730;50.856;12.776;2023-03-31T18:01:02;2.03;;;0.80;;